Time;durP1;ratioP1;P1;durP2;ratioP2;P2;SDS_P1;SDS_P2;PMS_P1;PMS_P2;Temp;Humidity;BMP_temperature;BMP_pressure;BME280_temperature;BME280_humidity;BME280_pressure;Samples;Min_cycle;Max_cycle;Signal;HPM_P1;HPM_P2
2021/11/06 00:00:25;;;;;;;7.20;6.60;;;;;;;13.12;48.69;96453.75;5025026;28;20029;-73
2021/11/06 00:02:50;;;;;;;7.78;7.07;;;;;;;13.12;48.59;96458.28;5010115;28;20029;-74
2021/11/06 00:05:16;;;;;;;9.02;8.15;;;;;;;13.20;48.92;96461.09;5010358;28;20109;-74
2021/11/06 00:07:42;;;;;;;8.40;7.60;;;;;;;13.17;48.56;96456.34;5009748;28;20045;-73
2021/11/06 00:10:10;;;;;;;7.43;6.72;;;;;;;13.26;48.59;96465.34;4996886;28;20672;-73
2021/11/06 00:12:37;;;;;;;7.93;7.25;;;;;;;13.26;48.70;96457.31;5002682;28;20063;-74
2021/11/06 00:15:04;;;;;;;8.52;7.72;;;;;;;13.17;48.65;96458.22;5010153;28;20026;-73
2021/11/06 00:17:29;;;;;;;9.48;8.63;;;;;;;13.25;48.54;96457.59;5010030;28;20036;-73
2021/11/06 00:19:54;;;;;;;8.63;7.70;;;;;;;13.11;48.79;96454.81;5009803;28;20026;-74
2021/11/06 00:22:20;;;;;;;8.20;7.40;;;;;;;13.18;48.44;96462.47;5009669;28;20529;-73
2021/11/06 00:24:45;;;;;;;9.02;8.23;;;;;;;12.71;48.70;96450.78;4995478;28;20031;-73
2021/11/06 00:27:11;;;;;;;8.95;8.23;;;;;;;12.90;49.33;96456.19;5006708;28;20072;-73
2021/11/06 00:29:36;;;;;;;9.32;8.52;;;;;;;12.83;49.27;96466.38;4989956;28;20027;-74
2021/11/06 00:32:02;;;;;;;9.77;8.88;;;;;;;12.80;49.49;96461.63;4990581;28;20041;-73
2021/11/06 00:34:27;;;;;;;9.40;8.48;;;;;;;12.75;49.26;96449.94;4990368;28;20022;-74
2021/11/06 00:36:52;;;;;;;9.70;8.90;;;;;;;12.85;49.68;96458.91;4990268;28;20487;-73
2021/11/06 00:39:18;;;;;;;10.25;9.35;;;;;;;12.88;49.49;96461.00;4995754;28;20062;-74
2021/11/06 00:41:43;;;;;;;9.23;8.45;;;;;;;12.91;49.70;96453.22;4999948;28;20105;-73
2021/11/06 00:44:09;;;;;;;9.30;8.40;;;;;;;12.82;49.84;96448.78;5006811;28;20033;-73
2021/11/06 00:46:34;;;;;;;10.18;9.18;;;;;;;12.88;49.53;96444.97;5009962;28;20033;-73
2021/11/06 00:49:00;;;;;;;9.20;8.40;;;;;;;12.96;49.48;96449.69;5009531;28;20077;-74
2021/11/06 00:51:26;;;;;;;11.32;9.85;;;;;;;12.74;49.87;96448.34;5009941;28;20018;-73
2021/11/06 00:53:51;;;;;;;10.30;9.30;;;;;;;12.79;49.53;96457.34;5009045;28;20159;-74
2021/11/06 00:56:17;;;;;;;10.60;9.70;;;;;;;11.56;52.16;96469.13;5016729;28;20149;-74
2021/11/06 00:58:42;;;;;;;10.20;9.30;;;;;;;11.99;51.65;96471.25;4996511;28;20029;-74
2021/11/06 01:01:08;;;;;;;10.32;9.20;;;;;;;12.10;51.86;96470.09;4989993;28;20109;-73
2021/11/06 01:03:34;;;;;;;11.07;10.07;;;;;;;12.27;51.43;96467.78;4990108;28;20492;-73
2021/11/06 01:05:59;;;;;;;10.30;9.30;;;;;;;12.28;51.00;96477.38;4990233;28;20506;-73
2021/11/06 01:08:24;;;;;;;9.98;9.18;;;;;;;11.95;51.41;96468.34;5000832;28;20037;-74
2021/11/06 01:10:50;;;;;;;9.52;8.70;;;;;;;11.95;51.99;96453.16;5005554;28;20518;-75
2021/11/06 01:13:17;;;;;;;10.07;9.23;;;;;;;11.08;54.71;96460.91;5006132;28;20026;-73
2021/11/06 01:15:43;;;;;;;10.07;9.18;;;;;;;11.57;53.51;96465.41;5009783;28;20034;-73
2021/11/06 01:18:08;;;;;;;10.40;9.45;;;;;;;12.10;52.65;96470.88;5009700;28;20030;-73
2021/11/06 01:20:33;;;;;;;10.75;9.65;;;;;;;12.31;51.92;96460.81;5009566;28;20057;-73
2021/11/06 01:22:59;;;;;;;10.00;9.10;;;;;;;12.58;51.36;96468.25;5011827;28;20980;-73
2021/11/06 01:25:24;;;;;;;10.18;9.10;;;;;;;12.59;51.25;96456.53;5000705;28;20025;-74
2021/11/06 01:27:50;;;;;;;11.32;10.32;;;;;;;12.79;50.54;96471.50;4998798;28;20066;-74
2021/11/06 01:30:16;;;;;;;11.15;10.13;;;;;;;12.87;50.34;96462.06;5007074;28;20024;-74
2021/11/06 01:32:44;;;;;;;10.38;9.38;;;;;;;12.93;50.23;96456.38;5024423;28;20084;-74
2021/11/06 01:35:11;;;;;;;9.85;8.95;;;;;;;12.97;50.20;96457.41;5010638;28;20022;-75
2021/11/06 01:37:37;;;;;;;10.32;9.35;;;;;;;13.04;49.95;96449.03;5012973;28;20037;-73
2021/11/06 01:40:06;;;;;;;11.13;10.13;;;;;;;13.03;49.84;96455.47;5006096;28;20030;-74
2021/11/06 01:42:31;;;;;;;11.90;10.70;;;;;;;13.00;49.89;96451.50;4996886;28;20587;-74
2021/11/06 01:44:57;;;;;;;10.70;9.70;;;;;;;12.98;49.45;96442.97;5012777;28;20033;-74
2021/11/06 01:47:22;;;;;;;9.52;8.73;;;;;;;12.88;49.84;96424.41;4993493;28;20033;-74
2021/11/06 01:49:47;;;;;;;9.68;8.77;;;;;;;13.10;49.28;96455.09;4993081;28;20431;-74
2021/11/06 01:52:13;;;;;;;9.68;8.77;;;;;;;13.12;49.65;96451.06;4993396;28;20098;-73
2021/11/06 01:54:38;;;;;;;9.98;9.15;;;;;;;13.10;49.19;96450.53;5004283;28;20025;-76
2021/11/06 01:57:04;;;;;;;9.82;9.00;;;;;;;13.14;49.33;96446.22;5004476;28;20026;-73
2021/11/06 01:59:30;;;;;;;10.00;9.07;;;;;;;13.16;49.18;96448.63;5012642;28;20034;-73
2021/11/06 02:01:58;;;;;;;10.23;9.23;;;;;;;13.18;49.04;96457.13;5012885;28;20048;-74
2021/11/06 02:04:23;;;;;;;9.07;8.38;;;;;;;13.18;49.02;96435.75;5013046;28;20418;-74
2021/11/06 02:06:49;;;;;;;10.57;9.43;;;;;;;13.20;49.33;96446.94;5012834;28;20030;-74
2021/11/06 02:09:14;;;;;;;11.50;10.52;;;;;;;13.07;49.24;96434.31;5011201;28;20057;-73
2021/11/06 02:11:40;;;;;;;12.65;11.45;;;;;;;13.05;49.10;96431.13;4998083;28;20551;-74
2021/11/06 02:14:06;;;;;;;11.65;10.15;;;;;;;13.08;49.02;96442.03;5004255;28;20392;-76
2021/11/06 02:16:32;;;;;;;10.68;9.63;;;;;;;13.14;49.40;96448.91;5012544;28;20053;-75
2021/11/06 02:18:58;;;;;;;11.57;10.50;;;;;;;13.12;49.38;96442.25;5010668;28;20030;-73
2021/11/06 02:21:24;;;;;;;10.65;9.68;;;;;;;13.07;49.25;96440.44;5027618;28;20021;-73
2021/11/06 02:23:50;;;;;;;11.70;10.60;;;;;;;13.10;49.44;96447.88;5010148;28;20087;-73
2021/11/06 02:26:18;;;;;;;11.70;10.60;;;;;;;12.99;49.22;96428.50;5000400;28;20084;-74
2021/11/06 02:28:51;;;;;;;11.63;10.48;;;;;;;13.05;49.26;96439.13;5003892;28;20156;-74
2021/11/06 02:31:17;;;;;;;14.82;13.43;;;;;;;13.05;49.35;96441.81;5011374;28;20022;-74
2021/11/06 02:33:43;;;;;;;12.93;11.30;;;;;;;13.02;49.42;96437.84;5011857;28;20624;-74
2021/11/06 02:36:08;;;;;;;13.40;12.10;;;;;;;13.02;49.71;96440.53;5012052;28;20018;-73
2021/11/06 02:38:34;;;;;;;14.15;12.75;;;;;;;12.98;49.48;96436.81;5011373;28;20022;-73
2021/11/06 02:40:59;;;;;;;13.00;11.82;;;;;;;12.94;49.28;96430.47;4998698;28;20026;-74
2021/11/06 02:43:25;;;;;;;13.85;12.55;;;;;;;12.93;49.65;96450.25;5007922;28;20022;-74
2021/11/06 02:45:50;;;;;;;13.70;12.23;;;;;;;12.90;49.69;96429.47;4991864;28;20032;-73
2021/11/06 02:48:16;;;;;;;12.75;11.55;;;;;;;12.96;49.65;96439.78;4992392;28;20558;-73
2021/11/06 02:50:41;;;;;;;12.95;11.60;;;;;;;12.90;49.38;96427.59;4991765;28;20085;-73
2021/11/06 02:53:06;;;;;;;15.25;13.65;;;;;;;12.90;49.65;96438.28;4991945;28;20019;-74
2021/11/06 02:55:32;;;;;;;15.23;13.27;;;;;;;12.90;49.54;96442.81;5001559;28;20052;-73
2021/11/06 02:57:58;;;;;;;12.85;11.65;;;;;;;12.86;49.44;96439.91;5000241;28;20061;-74
2021/11/06 03:00:24;;;;;;;13.07;11.55;;;;;;;12.80;49.58;96434.94;5010348;28;20057;-74
2021/11/06 03:02:49;;;;;;;15.43;13.93;;;;;;;12.66;49.85;96443.63;5009746;28;20384;-73
2021/11/06 03:05:15;;;;;;;14.10;12.70;;;;;;;12.63;50.03;96454.06;5011472;28;20026;-73
2021/11/06 03:07:42;;;;;;;12.18;10.98;;;;;;;12.61;50.01;96446.34;5010912;28;20056;-74
2021/11/06 03:10:10;;;;;;;12.57;11.38;;;;;;;12.49;50.17;96438.75;5003837;28;20042;-73
2021/11/06 03:12:37;;;;;;;12.98;11.15;;;;;;;12.52;49.91;96449.94;5015215;28;20113;-75
2021/11/06 03:15:05;;;;;;;13.00;11.80;;;;;;;12.11;49.97;96399.66;5010779;28;20468;-73
2021/11/06 03:17:30;;;;;;;11.77;10.73;;;;;;;12.44;50.15;96446.81;5011286;28;20363;-73
2021/11/06 03:19:56;;;;;;;13.52;12.23;;;;;;;12.34;50.28;96438.91;5010807;28;20022;-73
2021/11/06 03:22:21;;;;;;;13.63;12.30;;;;;;;12.33;50.71;96453.31;5011129;28;20045;-74
2021/11/06 03:24:47;;;;;;;12.95;11.73;;;;;;;12.34;50.48;96449.59;5002460;28;20105;-74
2021/11/06 03:27:12;;;;;;;12.10;11.10;;;;;;;12.29;50.30;96446.19;4994852;28;20161;-73
2021/11/06 03:29:38;;;;;;;13.57;12.27;;;;;;;12.35;50.63;96453.06;5003648;28;20032;-74
2021/11/06 03:32:06;;;;;;;13.85;12.25;;;;;;;12.30;50.28;96455.78;5010975;28;20022;-73
2021/11/06 03:34:31;;;;;;;12.00;10.73;;;;;;;12.32;50.37;96464.28;5009122;28;20455;-73
2021/11/06 03:36:57;;;;;;;12.60;11.30;;;;;;;12.33;50.46;96463.97;5010887;28;20053;-73
2021/11/06 03:39:23;;;;;;;13.40;11.90;;;;;;;12.31;50.59;96460.81;5007113;28;20022;-74
2021/11/06 03:41:48;;;;;;;12.13;10.80;;;;;;;12.14;50.21;96441.78;5001113;28;20099;-74
2021/11/06 03:44:14;;;;;;;12.10;10.98;;;;;;;12.28;50.59;96461.38;5002398;28;20034;-73
2021/11/06 03:46:41;;;;;;;14.55;13.05;;;;;;;12.29;50.54;96471.00;5025779;28;20116;-74
2021/11/06 03:49:06;;;;;;;12.50;11.30;;;;;;;12.22;50.47;96462.50;5010263;28;20073;-73
2021/11/06 03:51:32;;;;;;;11.50;10.40;;;;;;;12.32;50.32;96473.06;5010532;28;20057;-74
2021/11/06 03:53:58;;;;;;;16.27;12.75;;;;;;;12.33;50.37;96466.66;5022512;28;20042;-74
2021/11/06 03:56:24;;;;;;;12.82;11.48;;;;;;;12.33;50.59;96473.88;4996421;28;20025;-74
2021/11/06 03:58:50;;;;;;;14.15;12.80;;;;;;;12.29;50.30;96462.97;5001512;28;20455;-74
2021/11/06 04:01:16;;;;;;;16.38;14.27;;;;;;;12.17;50.24;96471.34;5009904;28;20049;-74
2021/11/06 04:03:41;;;;;;;14.65;13.05;;;;;;;12.13;50.18;96462.34;5010095;28;20080;-73
2021/11/06 04:06:07;;;;;;;15.98;14.38;;;;;;;12.07;50.35;96466.09;5010236;28;20430;-73
2021/11/06 04:08:32;;;;;;;12.68;11.35;;;;;;;11.97;50.32;96455.53;5009713;28;20121;-73
2021/11/06 04:10:57;;;;;;;14.98;12.73;;;;;;;12.01;50.38;96464.56;5016993;28;20026;-74
2021/11/06 04:13:23;;;;;;;12.25;11.05;;;;;;;12.02;50.34;96468.03;4991161;28;20478;-74
2021/11/06 04:15:48;;;;;;;11.48;10.38;;;;;;;11.99;50.53;96474.72;4990547;28;20048;-74
2021/11/06 04:18:14;;;;;;;12.65;11.35;;;;;;;11.95;50.35;96465.69;4990733;28;20586;-74
2021/11/06 04:20:40;;;;;;;13.02;11.73;;;;;;;11.91;50.61;96456.66;4990214;28;20033;-74
2021/11/06 04:23:05;;;;;;;13.57;12.05;;;;;;;11.77;50.32;96437.78;4990295;28;20109;-74
2021/11/06 04:25:31;;;;;;;10.85;9.75;;;;;;;11.74;50.34;96446.38;4997702;28;20021;-74
2021/11/06 04:27:56;;;;;;;13.02;11.05;;;;;;;11.84;50.43;96466.84;4998210;28;20218;-74
2021/11/06 04:30:22;;;;;;;10.70;9.60;;;;;;;11.74;50.30;96469.56;5008833;28;20029;-74
2021/11/06 04:32:47;;;;;;;9.90;8.90;;;;;;;11.66;50.77;96463.72;5009799;28;20053;-74
2021/11/06 04:35:13;;;;;;;10.23;9.23;;;;;;;11.63;50.99;96466.19;5009893;28;20047;-74
2021/11/06 04:37:39;;;;;;;9.23;8.43;;;;;;;11.66;51.02;96474.41;5009588;28;20586;-74
2021/11/06 04:40:09;;;;;;;10.65;9.75;;;;;;;11.55;51.02;96469.44;5008803;28;20030;-74
2021/11/06 04:42:35;;;;;;;12.77;11.55;;;;;;;11.52;50.36;96470.78;4998202;28;20014;-74
2021/11/06 04:45:01;;;;;;;13.68;11.88;;;;;;;11.39;50.76;96468.72;4998389;28;20038;-74
2021/11/06 04:47:26;;;;;;;12.85;11.55;;;;;;;11.24;51.07;96463.50;4990466;28;20023;-74
2021/11/06 04:49:52;;;;;;;11.45;9.65;;;;;;;11.11;50.62;96471.03;4990112;28;20034;-74
2021/11/06 04:52:17;;;;;;;12.60;11.30;;;;;;;10.98;51.03;96466.28;5005343;28;20097;-74
2021/11/06 04:54:43;;;;;;;13.15;10.32;;;;;;;10.85;51.18;96465.03;5004635;28;20034;-74
2021/11/06 04:57:08;;;;;;;18.20;14.23;;;;;;;10.73;51.32;96469.84;4997298;28;20026;-73
2021/11/06 04:59:34;;;;;;;17.83;14.95;;;;;;;10.52;51.72;96458.47;5001282;28;20621;-74
2021/11/06 05:02:01;;;;;;;16.45;13.70;;;;;;;10.46;52.15;96474.72;5010042;28;20026;-73
2021/11/06 05:04:26;;;;;;;15.88;13.90;;;;;;;10.24;52.30;96459.09;5024921;28;20022;-73
2021/11/06 05:06:52;;;;;;;16.50;12.50;;;;;;;10.19;52.62;96469.72;5010154;28;20028;-73
2021/11/06 05:09:18;;;;;;;15.90;13.45;;;;;;;10.03;52.40;96464.41;5014177;28;20033;-74
2021/11/06 05:11:43;;;;;;;14.68;12.90;;;;;;;9.86;52.40;96448.72;5000879;28;20077;-73
2021/11/06 05:14:09;;;;;;;17.00;13.15;;;;;;;9.82;52.72;96460.16;5012041;28;20030;-74
2021/11/06 05:16:35;;;;;;;14.77;12.10;;;;;;;9.67;52.93;96463.59;5014102;28;20173;-74
2021/11/06 05:19:00;;;;;;;12.38;10.70;;;;;;;9.71;53.26;96469.19;5028555;28;20467;-74
2021/11/06 05:21:34;;;;;;;16.15;13.45;;;;;;;9.69;53.55;96477.44;5013760;28;20059;-73
2021/11/06 05:24:00;;;;;;;16.73;14.10;;;;;;;9.59;53.19;96466.81;5015005;28;20030;-73
2021/11/06 05:26:25;;;;;;;17.80;13.63;;;;;;;9.54;53.20;96466.78;5009056;28;20414;-74
2021/11/06 05:28:51;;;;;;;14.77;13.27;;;;;;;9.46;53.76;96472.63;5008229;28;20057;-74
2021/11/06 05:31:16;;;;;;;16.17;13.18;;;;;;;9.32;53.37;96453.75;4995288;28;20089;-74
2021/11/06 05:33:41;;;;;;;17.92;12.93;;;;;;;9.38;53.73;96479.25;4993456;28;20026;-74
2021/11/06 05:36:07;;;;;;;15.85;12.23;;;;;;;9.36;53.45;96481.38;4993502;28;20022;-73
2021/11/06 05:38:32;;;;;;;17.67;13.90;;;;;;;9.25;53.45;96477.09;4993460;28;20042;-74
2021/11/06 05:40:58;;;;;;;16.90;13.43;;;;;;;9.19;53.92;96484.25;5004600;28;20018;-74
2021/11/06 05:43:23;;;;;;;15.63;14.02;;;;;;;9.10;53.61;96483.16;5004611;28;20033;-74
2021/11/06 05:45:48;;;;;;;12.05;10.85;;;;;;;9.01;53.68;96484.75;5007426;28;20022;-76
2021/11/06 05:48:14;;;;;;;13.50;12.10;;;;;;;8.93;53.99;96470.13;5013201;28;20033;-74
2021/11/06 05:50:39;;;;;;;13.27;11.55;;;;;;;9.00;54.29;96478.63;5012428;28;20022;-74
2021/11/06 05:53:05;;;;;;;20.15;12.95;;;;;;;9.00;53.87;96483.13;5012530;28;20458;-73
2021/11/06 05:55:30;;;;;;;15.98;13.30;;;;;;;8.91;54.09;96468.78;5009650;28;20026;-74
2021/11/06 05:57:55;;;;;;;14.95;12.35;;;;;;;8.93;54.24;96479.94;5004878;28;20080;-74
2021/11/06 06:00:21;;;;;;;16.38;13.18;;;;;;;8.96;53.81;96496.16;5002154;28;20030;-74
2021/11/06 06:02:47;;;;;;;13.40;12.00;;;;;;;8.95;54.36;96491.06;4992779;28;20030;-73
2021/11/06 06:05:14;;;;;;;13.88;12.32;;;;;;;8.95;54.29;96491.06;4992904;28;20046;-74
2021/11/06 06:07:40;;;;;;;16.30;12.95;;;;;;;8.82;54.16;96485.19;4993154;28;20049;-74
2021/11/06 06:10:08;;;;;;;14.85;13.13;;;;;;;8.84;54.25;96499.00;4998595;28;20065;-73
2021/11/06 06:12:35;;;;;;;14.75;12.82;;;;;;;8.76;54.30;96480.16;5002808;28;20100;-73
2021/11/06 06:15:00;;;;;;;15.55;12.40;;;;;;;8.76;54.22;96488.91;5003798;28;20029;-73
2021/11/06 06:17:25;;;;;;;16.58;13.68;;;;;;;8.76;54.30;96486.25;5012403;28;20026;-73
2021/11/06 06:19:51;;;;;;;15.00;12.20;;;;;;;8.74;54.70;96493.66;5012188;28;20026;-73
2021/11/06 06:22:16;;;;;;;15.65;12.98;;;;;;;8.80;54.03;96503.25;5011659;28;20030;-73
2021/11/06 06:24:42;;;;;;;12.40;11.10;;;;;;;8.78;54.26;96507.19;5010582;28;20056;-73
2021/11/06 06:27:07;;;;;;;12.63;10.63;;;;;;;8.71;54.36;96498.69;4999612;28;20033;-72
2021/11/06 06:29:33;;;;;;;14.52;12.07;;;;;;;8.79;54.24;96506.94;5003756;28;20030;-72
2021/11/06 06:31:59;;;;;;;13.73;10.00;;;;;;;8.84;54.33;96522.88;5012337;28;20052;-73
2021/11/06 06:34:24;;;;;;;14.90;12.77;;;;;;;8.75;54.27;96520.97;5012004;28;20076;-73
2021/11/06 06:36:50;;;;;;;12.90;11.60;;;;;;;8.74;54.20;96519.38;5012199;28;20029;-73
2021/11/06 06:39:15;;;;;;;16.13;11.98;;;;;;;8.68;53.92;96509.81;5011435;28;20030;-73
2021/11/06 06:41:41;;;;;;;13.13;11.70;;;;;;;8.78;53.66;96515.97;5016134;28;20472;-73
2021/11/06 06:44:06;;;;;;;11.73;9.13;;;;;;;8.82;54.21;96524.19;5008537;28;20025;-73
2021/11/06 06:46:31;;;;;;;11.68;10.00;;;;;;;8.93;54.04;96527.69;5011847;28;20029;-73
2021/11/06 06:48:57;;;;;;;11.63;10.07;;;;;;;8.90;54.70;96525.56;5011446;28;20041;-73
2021/11/06 06:51:22;;;;;;;13.73;10.40;;;;;;;8.99;54.32;96531.97;5011992;28;20551;-72
2021/11/06 06:53:48;;;;;;;13.75;11.23;;;;;;;9.08;54.53;96541.03;5011139;28;20022;-73
2021/11/06 06:56:13;;;;;;;11.05;9.95;;;;;;;9.11;53.78;96529.91;5020903;28;20054;-73
2021/11/06 06:58:39;;;;;;;11.25;10.15;;;;;;;9.14;53.43;96539.19;5002100;28;20032;-72
2021/11/06 07:01:04;;;;;;;12.77;9.15;;;;;;;9.19;54.02;96537.34;5007776;28;20022;-72
2021/11/06 07:03:30;;;;;;;11.15;10.10;;;;;;;9.19;54.03;96537.34;5011367;28;20046;-72
2021/11/06 07:05:55;;;;;;;14.70;11.43;;;;;;;9.30;53.80;96541.63;5011171;28;20100;-73
2021/11/06 07:08:21;;;;;;;10.38;9.38;;;;;;;9.21;53.70;96531.78;5011273;28;20026;-73
2021/11/06 07:10:47;;;;;;;12.77;11.48;;;;;;;9.31;53.75;96545.88;5005995;28;20033;-73
2021/11/06 07:13:19;;;;;;;9.85;8.88;;;;;;;9.35;54.00;96548.81;5002615;28;20653;-73
2021/11/06 07:15:44;;;;;;;27.35;19.48;;;;;;;9.37;53.46;96536.09;5006637;28;20030;-73
2021/11/06 07:18:09;;;;;;;11.50;9.93;;;;;;;9.51;53.70;96539.03;4991847;28;20034;-73
2021/11/06 07:20:35;;;;;;;22.45;13.98;;;;;;;9.55;53.78;96545.41;4991330;28;20031;-73
2021/11/06 07:23:00;;;;;;;16.40;12.73;;;;;;;9.62;53.05;96548.59;4991433;28;20110;-71
2021/11/06 07:25:26;;;;;;;21.02;14.73;;;;;;;9.65;53.50;96548.09;4998210;28;20029;-73
2021/11/06 07:27:51;;;;;;;14.32;12.00;;;;;;;9.73;53.34;96560.88;5001224;28;20034;-73
2021/11/06 07:30:17;;;;;;;14.27;11.60;;;;;;;9.77;53.20;96558.47;5007174;28;20595;-74
2021/11/06 07:32:43;;;;;;;12.93;11.27;;;;;;;9.78;53.48;96547.59;4991414;28;20033;-71
2021/11/06 07:35:09;;;;;;;13.68;10.18;;;;;;;9.87;53.13;96555.81;4991400;28;20511;-74
2021/11/06 07:37:36;;;;;;;9.73;8.82;;;;;;;9.84;52.95;96548.41;4991060;28;20030;-69
2021/11/06 07:40:03;;;;;;;9.07;8.18;;;;;;;9.94;53.04;96548.41;4997742;28;20025;-71
2021/11/06 07:42:28;;;;;;;7.75;6.95;;;;;;;10.02;52.88;96555.03;4997634;28;20026;-72
2021/11/06 07:44:54;;;;;;;7.55;6.43;;;;;;;10.07;52.79;96571.78;5002000;28;20024;-70
2021/11/06 07:47:19;;;;;;;5.53;5.00;;;;;;;10.11;52.66;96558.78;5010551;28;20022;-70
2021/11/06 07:49:45;;;;;;;6.93;5.95;;;;;;;10.22;52.70;96568.34;5025227;28;20038;-71
2021/11/06 07:52:10;;;;;;;6.15;5.15;;;;;;;10.31;52.28;96572.09;5010483;28;20025;-70
2021/11/06 07:54:35;;;;;;;6.43;5.82;;;;;;;10.34;52.13;96574.25;5010369;28;20113;-71
2021/11/06 07:57:01;;;;;;;5.18;4.68;;;;;;;10.37;52.28;96571.03;4998274;28;20080;-70
2021/11/06 07:59:26;;;;;;;5.55;5.05;;;;;;;10.50;51.99;96576.88;5001570;28;20045;-73
2021/11/06 08:01:52;;;;;;;8.00;5.38;;;;;;;10.57;51.92;96572.06;5010527;28;20045;-76
2021/11/06 08:04:17;;;;;;;5.28;4.88;;;;;;;10.67;51.61;96575.50;5011550;28;20479;-74
2021/11/06 08:06:43;;;;;;;4.75;4.35;;;;;;;10.71;50.65;96577.66;5010750;28;20034;-68
2021/11/06 08:09:08;;;;;;;5.47;4.97;;;;;;;10.77;51.38;96585.34;5009892;28;20022;-74
2021/11/06 08:11:34;;;;;;;6.15;5.40;;;;;;;10.89;52.00;96588.50;4993545;28;20030;-66
2021/11/06 08:13:59;;;;;;;5.00;4.60;;;;;;;10.89;50.82;96585.84;5001605;28;20481;-67
2021/11/06 08:16:24;;;;;;;5.57;5.07;;;;;;;10.90;51.76;96584.81;5010090;28;20022;-65
2021/11/06 08:18:50;;;;;;;6.22;5.47;;;;;;;11.07;51.15;96584.47;5025376;28;20034;-66
2021/11/06 08:21:17;;;;;;;6.45;5.85;;;;;;;11.10;50.82;96580.47;5009812;28;20395;-67
2021/11/06 08:23:42;;;;;;;6.68;6.07;;;;;;;11.28;50.75;96579.06;5025168;28;20029;-70
2021/11/06 08:26:09;;;;;;;7.03;6.32;;;;;;;11.44;50.52;96577.94;5009783;28;20441;-72
2021/11/06 08:28:34;;;;;;;6.70;6.00;;;;;;;11.54;50.10;96574.44;4997185;28;20056;-73
2021/11/06 08:31:00;;;;;;;7.55;6.90;;;;;;;11.64;49.96;96574.38;4994581;28;20538;-75
2021/11/06 08:33:25;;;;;;;7.68;6.97;;;;;;;11.61;50.30;96569.59;4990760;28;20026;-66
2021/11/06 08:35:51;;;;;;;8.35;7.55;;;;;;;11.56;50.59;96575.72;4990613;28;20031;-67
2021/11/06 08:38:16;;;;;;;7.78;7.07;;;;;;;11.66;50.15;96572.22;4990239;28;20038;-67
2021/11/06 08:40:42;;;;;;;7.60;6.80;;;;;;;11.71;50.51;96570.31;5016080;28;20030;-68
2021/11/06 08:43:08;;;;;;;10.23;9.23;;;;;;;11.80;50.03;96580.41;4993658;28;20700;-69
2021/11/06 08:45:33;;;;;;;10.13;9.20;;;;;;;11.63;50.76;96570.91;5007707;28;20117;-69
2021/11/06 08:47:59;;;;;;;11.80;10.70;;;;;;;11.85;50.54;96569.75;5016166;28;20113;-69
2021/11/06 08:50:27;;;;;;;11.70;10.52;;;;;;;11.71;50.67;96566.84;5015950;28;20044;-68
2021/11/06 08:52:54;;;;;;;11.23;10.15;;;;;;;11.71;50.73;96566.84;5015651;28;20379;-68
2021/11/06 08:55:20;;;;;;;11.93;10.82;;;;;;;12.08;49.94;96570.91;5020972;28;20009;-68
2021/11/06 08:57:45;;;;;;;15.07;13.60;;;;;;;12.31;49.86;96572.09;5005676;28;20116;-67
2021/11/06 09:00:36;;;;;;;12.85;11.40;;;;;;;12.36;49.59;96564.03;5013390;28;20603;-67
2021/11/06 09:03:11;;;;;;;19.45;15.38;;;;;;;12.22;49.85;96559.31;5010218;28;20113;-67
2021/11/06 09:05:38;;;;;;;18.15;14.70;;;;;;;12.39;49.50;96552.81;5016170;28;20026;-68
2021/11/06 09:08:05;;;;;;;18.38;16.45;;;;;;;12.57;49.45;96559.31;5015618;28;20463;-67
2021/11/06 09:10:31;;;;;;;20.52;18.33;;;;;;;12.69;49.11;96557.88;5017768;28;20080;-67
2021/11/06 09:12:56;;;;;;;18.63;16.60;;;;;;;12.59;49.61;96557.13;5002621;28;20022;-68
2021/11/06 09:15:22;;;;;;;17.67;15.82;;;;;;;12.81;49.43;96559.34;5006591;28;20500;-68
2021/11/06 09:17:49;;;;;;;20.50;16.27;;;;;;;12.93;48.93;96567.75;5015996;28;20489;-68
2021/11/06 09:20:15;;;;;;;18.08;16.25;;;;;;;13.01;48.58;96564.47;5015391;28;20145;-68
2021/11/06 09:22:41;;;;;;;21.15;18.92;;;;;;;13.20;48.76;96559.94;5015364;28;20103;-65
2021/11/06 09:25:07;;;;;;;19.25;16.42;;;;;;;13.46;48.10;96567.69;5015396;28;20540;-72
2021/11/06 09:27:34;;;;;;;22.45;15.65;;;;;;;13.52;47.74;96579.94;5004414;28;20037;-76
2021/11/06 09:29:59;;;;;;;16.95;15.25;;;;;;;13.33;47.37;96557.72;5011289;28;20025;-70
2021/11/06 09:32:25;;;;;;;18.08;15.02;;;;;;;13.19;48.01;96574.41;4996777;28;20022;-69
2021/11/06 09:34:51;;;;;;;19.10;16.83;;;;;;;13.46;47.71;96565.84;4995983;28;20030;-68
2021/11/06 09:37:16;;;;;;;17.00;15.00;;;;;;;13.34;47.22;96565.44;4996420;28;20034;-71
2021/11/06 09:39:42;;;;;;;17.75;15.95;;;;;;;13.45;47.07;96566.09;4995806;28;20519;-71
2021/11/06 09:42:08;;;;;;;17.23;15.60;;;;;;;13.59;46.90;96566.19;5006853;28;20015;-72
2021/11/06 09:44:35;;;;;;;19.15;17.25;;;;;;;13.57;46.44;96561.16;5006748;28;20030;-70
2021/11/06 09:47:04;;;;;;;16.65;15.13;;;;;;;13.29;47.20;96557.47;4996187;28;20030;-71
2021/11/06 09:49:30;;;;;;;17.52;15.82;;;;;;;13.42;46.82;96569.38;4995857;28;20030;-71
2021/11/06 09:51:56;;;;;;;17.83;16.13;;;;;;;13.19;46.79;96563.72;4996998;28;20034;-77
2021/11/06 09:54:21;;;;;;;15.80;14.20;;;;;;;13.27;46.79;96557.78;4996171;28;20030;-69
2021/11/06 09:56:47;;;;;;;14.02;12.73;;;;;;;13.28;46.69;96561.25;5001140;28;20030;-73
2021/11/06 09:59:12;;;;;;;15.38;13.93;;;;;;;13.31;46.19;96559.84;4996508;28;20476;-75
2021/11/06 10:01:38;;;;;;;14.45;13.15;;;;;;;12.55;47.90;96556.13;4994081;28;20034;-73
2021/11/06 10:04:07;;;;;;;14.73;13.43;;;;;;;12.65;47.96;96561.38;4993222;28;20031;-81
2021/11/06 10:06:34;;;;;;;14.93;13.20;;;;;;;13.69;46.80;96547.34;4993686;28;20452;-75
2021/11/06 10:08:59;;;;;;;15.50;14.00;;;;;;;14.19;44.87;96550.34;4993430;28;20038;-79
2021/11/06 10:11:31;;;;;;;17.40;15.05;;;;;;;14.57;44.11;96545.72;4998300;28;20439;-76
2021/11/06 10:14:01;;;;;;;;;;;;;;;14.91;42.69;96556.09;5009014;28;20033;-73
2021/11/06 10:16:42;;;;;;;14.68;13.05;;;;;;;15.01;42.12;96555.09;4995007;28;19952;-81
2021/11/06 10:19:13;;;;;;;14.60;12.20;;;;;;;15.07;42.49;96548.53;4992541;28;20536;-74
2021/11/06 10:21:41;;;;;;;13.02;11.73;;;;;;;15.53;40.58;96551.09;4992459;28;20038;-73
2021/11/06 10:24:07;;;;;;;11.35;10.25;;;;;;;15.72;39.52;96548.31;4992188;28;20026;-80
2021/11/06 10:26:33;;;;;;;9.27;8.48;;;;;;;16.11;39.52;96544.19;5014133;28;20116;-76
2021/11/06 10:29:17;;;;;;;9.95;8.95;;;;;;;16.77;38.95;96547.16;4996051;28;20109;-72
2021/11/06 10:31:54;;;;;;;10.27;9.15;;;;;;;17.10;37.89;96547.63;5005906;28;20021;-69
2021/11/06 10:34:31;;;;;;;9.18;8.38;;;;;;;17.31;36.98;96531.72;5012903;28;20525;-76
2021/11/06 10:37:12;;;;;;;7.22;6.63;;;;;;;17.12;35.93;96531.97;5012803;28;20490;-76
2021/11/06 10:39:53;;;;;;;7.18;6.55;;;;;;;16.58;35.98;96537.41;5013083;28;20550;-76
2021/11/06 10:42:18;;;;;;;8.25;7.55;;;;;;;16.70;36.51;96528.75;5007900;28;20022;-77
2021/11/06 10:44:43;;;;;;;7.93;7.22;;;;;;;16.20;36.70;96526.25;4994758;28;20022;-78
2021/11/06 10:47:10;;;;;;;8.15;7.45;;;;;;;15.61;37.92;96530.81;4993458;28;20109;-76
2021/11/06 10:49:46;;;;;;;8.32;7.63;;;;;;;15.35;37.85;96517.16;4993342;28;20468;-76
2021/11/06 10:52:16;;;;;;;6.78;6.28;;;;;;;14.94;38.05;96511.81;4992772;28;20026;-76
2021/11/06 10:55:02;;;;;;;7.10;6.50;;;;;;;15.26;38.43;96514.41;4992505;28;20026;-77
2021/11/06 10:57:29;;;;;;;6.82;6.30;;;;;;;15.43;37.94;96507.63;5008841;28;20029;-78
2021/11/06 11:00:27;;;;;;;6.97;6.47;;;;;;;15.55;37.77;96510.56;5022631;28;20395;-79
2021/11/06 11:02:52;;;;;;;6.53;6.00;;;;;;;15.25;37.86;96503.94;4988991;28;20096;-77
2021/11/06 11:05:30;;;;;;;6.28;5.78;;;;;;;14.72;37.93;96504.47;5026837;28;20029;-80
2021/11/06 11:08:06;;;;;;;6.85;6.25;;;;;;;14.66;39.30;96505.66;5011828;28;20069;-82
2021/11/06 11:10:33;;;;;;;6.93;6.43;;;;;;;15.23;38.26;96504.25;5028351;28;20372;-75
2021/11/06 11:13:15;;;;;;;5.85;5.35;;;;;;;15.73;37.82;96496.25;5002796;28;20034;-75
2021/11/06 11:15:44;;;;;;;6.15;5.65;;;;;;;16.13;36.99;96498.28;4998682;28;20014;-80
2021/11/06 11:18:28;;;;;;;6.18;5.68;;;;;;;16.36;36.55;96495.25;5013034;28;20029;-73
2021/11/06 11:20:53;;;;;;;6.07;5.57;;;;;;;16.60;36.13;96491.41;5011499;28;20041;-76